sensor_id;sensor_type;location;lat;lon;timestamp;pressure;altitude;pressure_sealevel;temperature;humidity
62976;BME280;49071;0.000;0.000;2022-12-18T06:33:32;102756.22;;;17.78;26.98
62976;BME280;49071;0.000;0.000;2022-12-18T06:36:32;102751.84;;;17.76;27.12
62976;BME280;49071;0.000;0.000;2022-12-18T06:39:32;102764.13;;;17.74;27.47
62976;BME280;49071;0.000;0.000;2022-12-18T06:42:33;102768.53;;;17.70;27.39
62976;BME280;49071;0.000;0.000;2022-12-18T06:45:33;102773.00;;;17.63;27.47
62976;BME280;49071;0.000;0.000;2022-12-18T06:48:33;102769.56;;;17.58;27.62
62976;BME280;49071;0.000;0.000;2022-12-18T06:51:34;102767.91;;;17.50;27.48
62976;BME280;49071;0.000;0.000;2022-12-18T06:54:34;102788.97;;;17.43;27.52
62976;BME280;49071;0.000;0.000;2022-12-18T06:57:34;102784.72;;;17.33;27.75
62976;BME280;49071;0.000;0.000;2022-12-18T07:00:34;102789.19;;;17.23;27.80
62976;BME280;49071;0.000;0.000;2022-12-18T07:03:35;102797.13;;;17.14;27.81
62976;BME280;49071;0.000;0.000;2022-12-18T07:06:35;102798.09;;;17.06;27.69
62976;BME280;49071;0.000;0.000;2022-12-18T07:09:35;102796.41;;;16.97;27.97
62976;BME280;49071;0.000;0.000;2022-12-18T07:12:36;102802.63;;;16.88;27.92
62976;BME280;49071;0.000;0.000;2022-12-18T07:15:36;102817.53;;;16.82;27.79
62976;BME280;49071;0.000;0.000;2022-12-18T07:18:36;102830.69;;;16.75;27.96
62976;BME280;49071;0.000;0.000;2022-12-18T07:21:36;102818.47;;;16.71;28.33
62976;BME280;49071;0.000;0.000;2022-12-18T07:24:36;102819.34;;;16.69;28.17
62976;BME280;49071;0.000;0.000;2022-12-18T07:27:37;102816.69;;;16.73;28.42
62976;BME280;49071;0.000;0.000;2022-12-18T07:30:37;102801.81;;;16.82;28.29
62976;BME280;49071;0.000;0.000;2022-12-18T07:33:37;102804.34;;;16.92;28.05
62976;BME280;49071;0.000;0.000;2022-12-18T07:36:38;102814.69;;;17.08;28.96
62976;BME280;49071;0.000;0.000;2022-12-18T07:39:38;102801.47;;;17.18;28.66
62976;BME280;49071;0.000;0.000;2022-12-18T07:42:38;102797.84;;;17.30;28.52
62976;BME280;49071;0.000;0.000;2022-12-18T07:45:38;102803.81;;;17.44;28.67
62976;BME280;49071;0.000;0.000;2022-12-18T07:48:39;102815.94;;;17.56;28.54
62976;BME280;49071;0.000;0.000;2022-12-18T07:51:40;102827.16;;;17.70;28.30
62976;BME280;49071;0.000;0.000;2022-12-18T07:54:40;102822.69;;;17.80;28.06
62976;BME280;49071;0.000;0.000;2022-12-18T07:57:40;102825.94;;;18.01;28.06
62976;BME280;49071;0.000;0.000;2022-12-18T08:00:40;102824.03;;;18.12;27.67
62976;BME280;49071;0.000;0.000;2022-12-18T08:03:40;102816.97;;;18.17;27.56
62976;BME280;49071;0.000;0.000;2022-12-18T08:06:41;102822.22;;;18.17;27.67
62976;BME280;49071;0.000;0.000;2022-12-18T08:09:41;102824.81;;;18.20;27.47
62976;BME280;49071;0.000;0.000;2022-12-18T08:12:41;102819.63;;;18.14;27.86
62976;BME280;49071;0.000;0.000;2022-12-18T08:15:41;102819.63;;;18.14;27.78
62976;BME280;49071;0.000;0.000;2022-12-18T08:18:41;102810.78;;;18.21;27.66
62976;BME280;49071;0.000;0.000;2022-12-18T08:21:41;102806.22;;;18.34;27.43
62976;BME280;49071;0.000;0.000;2022-12-18T08:24:42;102799.91;;;18.47;27.26
62976;BME280;49071;0.000;0.000;2022-12-18T08:27:42;102802.47;;;18.50;27.45
62976;BME280;49071;0.000;0.000;2022-12-18T08:30:42;102804.28;;;18.47;27.53
62976;BME280;49071;0.000;0.000;2022-12-18T08:33:42;102802.56;;;18.42;27.95
62976;BME280;49071;0.000;0.000;2022-12-18T08:36:43;102793.91;;;18.37;27.57
62976;BME280;49071;0.000;0.000;2022-12-18T08:39:43;102783.41;;;18.37;27.36
62976;BME280;49071;0.000;0.000;2022-12-18T08:42:43;102787.78;;;18.37;27.46
62976;BME280;49071;0.000;0.000;2022-12-18T08:46:02;102802.66;;;18.38;27.55
62976;BME280;49071;0.000;0.000;2022-12-18T08:49:02;102807.09;;;18.36;27.65
62976;BME280;49071;0.000;0.000;2022-12-18T08:52:02;102809.63;;;18.39;27.73
62976;BME280;49071;0.000;0.000;2022-12-18T08:55:03;102821.03;;;18.38;27.80
62976;BME280;49071;0.000;0.000;2022-12-18T08:58:03;102833.25;;;18.44;27.88
62976;BME280;49071;0.000;0.000;2022-12-18T09:01:04;102827.94;;;18.45;27.89
62976;BME280;49071;0.000;0.000;2022-12-18T09:04:05;102815.66;;;18.47;28.01
62976;BME280;49071;0.000;0.000;2022-12-18T09:07:05;102820.84;;;18.53;27.59
62976;BME280;49071;0.000;0.000;2022-12-18T09:10:05;102820.66;;;18.62;27.70
62976;BME280;49071;0.000;0.000;2022-12-18T09:13:05;102821.44;;;18.71;27.77
62976;BME280;49071;0.000;0.000;2022-12-18T09:16:06;102825.63;;;18.84;27.47
62976;BME280;49071;0.000;0.000;2022-12-18T09:19:06;102835.13;;;18.93;27.43
62976;BME280;49071;0.000;0.000;2022-12-18T09:22:06;102826.31;;;18.97;27.49
62976;BME280;49071;0.000;0.000;2022-12-18T09:25:06;102818.47;;;18.92;27.28
62976;BME280;49071;0.000;0.000;2022-12-18T09:28:11;102817.66;;;18.90;27.50
62976;BME280;49071;0.000;0.000;2022-12-18T09:31:11;102826.59;;;18.78;27.82
62976;BME280;49071;0.000;0.000;2022-12-18T09:34:15;102827.56;;;18.73;27.66
62976;BME280;49071;0.000;0.000;2022-12-18T09:37:15;102839.94;;;18.64;27.70
62976;BME280;49071;0.000;0.000;2022-12-18T09:40:16;102847.94;;;18.55;28.00
62976;BME280;49071;0.000;0.000;2022-12-18T09:43:34;102844.63;;;18.42;27.90
62976;BME280;49071;0.000;0.000;2022-12-18T09:46:37;102853.47;;;18.35;28.23
62976;BME280;49071;0.000;0.000;2022-12-18T09:49:40;102845.69;;;18.31;28.28
62976;BME280;49071;0.000;0.000;2022-12-18T09:52:43;102850.97;;;18.29;28.61
62976;BME280;49071;0.000;0.000;2022-12-18T09:55:45;102858.88;;;18.26;28.37
62976;BME280;49071;0.000;0.000;2022-12-18T09:58:47;102850.13;;;18.24;28.05
62976;BME280;49071;0.000;0.000;2022-12-18T10:01:49;102843.16;;;18.22;28.18
62976;BME280;49071;0.000;0.000;2022-12-18T10:07:58;102861.59;;;18.20;28.48
62976;BME280;49071;0.000;0.000;2022-12-18T10:23:37;102856.03;;;18.41;27.96
62976;BME280;49071;0.000;0.000;2022-12-18T10:26:40;102849.81;;;18.47;27.95
62976;BME280;49071;0.000;0.000;2022-12-18T10:29:44;102851.50;;;18.53;27.83
62976;BME280;49071;0.000;0.000;2022-12-18T10:32:44;102835.56;;;18.62;28.01
62976;BME280;49071;0.000;0.000;2022-12-18T10:35:45;102838.16;;;18.67;28.01
62976;BME280;49071;0.000;0.000;2022-12-18T10:38:46;102822.19;;;18.80;27.81
62976;BME280;49071;0.000;0.000;2022-12-18T10:41:47;102823.72;;;18.94;27.81
62976;BME280;49071;0.000;0.000;2022-12-18T10:44:57;102830.63;;;19.01;27.50
62976;BME280;49071;0.000;0.000;2022-12-18T10:48:00;102831.28;;;19.14;27.41
62976;BME280;49071;0.000;0.000;2022-12-18T10:51:00;102818.84;;;19.20;27.11
62976;BME280;49071;0.000;0.000;2022-12-18T10:54:04;102816.31;;;19.17;27.66
62976;BME280;49071;0.000;0.000;2022-12-18T11:00:34;102825.31;;;19.04;27.79
62976;BME280;49071;0.000;0.000;2022-12-18T11:03:40;102823.63;;;18.98;27.69
62976;BME280;49071;0.000;0.000;2022-12-18T11:06:59;102823.78;;;18.89;27.64
62976;BME280;49071;0.000;0.000;2022-12-18T11:10:00;102807.28;;;18.81;28.20
62976;BME280;49071;0.000;0.000;2022-12-18T11:13:11;102804.78;;;18.72;28.02
62976;BME280;49071;0.000;0.000;2022-12-18T11:16:18;102797.81;;;18.68;28.19
62976;BME280;49071;0.000;0.000;2022-12-18T11:19:27;102795.38;;;18.55;28.18
62976;BME280;49071;0.000;0.000;2022-12-18T11:22:29;102786.66;;;18.53;28.48
62976;BME280;49071;0.000;0.000;2022-12-18T11:25:30;102780.56;;;18.51;28.45
62976;BME280;49071;0.000;0.000;2022-12-18T11:31:35;102772.94;;;18.36;28.47
62976;BME280;49071;0.000;0.000;2022-12-18T11:34:36;102765.94;;;18.33;28.86
62976;BME280;49071;0.000;0.000;2022-12-18T11:37:36;102760.66;;;18.35;28.46
62976;BME280;49071;0.000;0.000;2022-12-18T11:40:37;102756.28;;;18.35;28.52
62976;BME280;49071;0.000;0.000;2022-12-18T11:43:44;102751.00;;;18.37;28.57
62976;BME280;49071;0.000;0.000;2022-12-18T11:46:51;102746.63;;;18.37;28.47
62976;BME280;49071;0.000;0.000;2022-12-18T11:49:52;102757.91;;;18.44;29.13
62976;BME280;49071;0.000;0.000;2022-12-18T11:52:55;102755.09;;;18.56;30.81
62976;BME280;49071;0.000;0.000;2022-12-18T11:56:04;102754.91;;;18.67;31.25
62976;BME280;49071;0.000;0.000;2022-12-18T12:05:55;102763.78;;;19.11;31.25
62976;BME280;49071;0.000;0.000;2022-12-18T12:09:33;102772.44;;;19.18;31.16
62976;BME280;49071;0.000;0.000;2022-12-18T12:12:28;102770.56;;;19.24;31.04
62976;BME280;49071;0.000;0.000;2022-12-18T12:15:46;102758.28;;;19.25;30.34
62976;BME280;49071;0.000;0.000;2022-12-18T12:21:55;102762.50;;;19.32;29.68
62976;BME280;49071;0.000;0.000;2022-12-18T12:34:16;102777.38;;;19.79;30.73
62976;BME280;49071;0.000;0.000;2022-12-18T12:40:52;102782.53;;;19.84;30.94
62976;BME280;49071;0.000;0.000;2022-12-18T12:43:55;102785.91;;;19.91;31.10
62976;BME280;49071;0.000;0.000;2022-12-18T12:46:57;102786.94;;;19.84;30.91
62976;BME280;49071;0.000;0.000;2022-12-18T12:49:58;102801.94;;;19.80;31.13
62976;BME280;49071;0.000;0.000;2022-12-18T12:52:59;102803.75;;;19.78;31.05
62976;BME280;49071;0.000;0.000;2022-12-18T12:56:01;102799.72;;;19.58;30.80
62976;BME280;49071;0.000;0.000;2022-12-18T13:02:10;102806.59;;;19.19;30.81
62976;BME280;49071;0.000;0.000;2022-12-18T13:05:17;102803.25;;;19.11;30.48
62976;BME280;49071;0.000;0.000;2022-12-18T13:08:22;102812.97;;;19.07;30.28
62976;BME280;49071;0.000;0.000;2022-12-18T13:14:51;102807.91;;;18.97;30.11
62976;BME280;49071;0.000;0.000;2022-12-18T13:21:17;102800.13;;;18.89;29.86
62976;BME280;49071;0.000;0.000;2022-12-18T13:24:24;102782.63;;;18.88;29.96
62976;BME280;49071;0.000;0.000;2022-12-18T13:30:45;102778.25;;;18.87;30.05
62976;BME280;49071;0.000;0.000;2022-12-18T13:33:46;102777.25;;;18.93;29.54
62976;BME280;49071;0.000;0.000;2022-12-18T13:36:46;102770.22;;;18.95;29.64
62976;BME280;49071;0.000;0.000;2022-12-18T13:39:47;102775.44;;;18.98;29.47
62976;BME280;49071;0.000;0.000;2022-12-18T13:42:47;102775.34;;;19.02;29.27
62976;BME280;49071;0.000;0.000;2022-12-18T13:46:17;102771.78;;;19.05;29.02
62976;BME280;49071;0.000;0.000;2022-12-18T13:52:34;102786.47;;;19.18;28.84
62976;BME280;49071;0.000;0.000;2022-12-18T13:55:36;102801.22;;;19.25;28.82
62976;BME280;49071;0.000;0.000;2022-12-18T13:58:36;102796.75;;;19.30;28.62
62976;BME280;49071;0.000;0.000;2022-12-18T14:01:36;102799.25;;;19.38;28.66
62976;BME280;49071;0.000;0.000;2022-12-18T14:04:44;102804.41;;;19.43;28.49
62976;BME280;49071;0.000;0.000;2022-12-18T14:07:44;102803.38;;;19.50;28.29
62976;BME280;49071;0.000;0.000;2022-12-18T14:10:45;102804.19;;;19.55;28.41
62976;BME280;49071;0.000;0.000;2022-12-18T14:13:47;102803.22;;;19.59;28.19
62976;BME280;49071;0.000;0.000;2022-12-18T14:16:47;102809.31;;;19.64;28.00
62976;BME280;49071;0.000;0.000;2022-12-18T14:19:48;102796.97;;;19.66;28.01
62976;BME280;49071;0.000;0.000;2022-12-18T14:22:49;102785.50;;;19.69;27.92
62976;BME280;49071;0.000;0.000;2022-12-18T14:25:49;102780.38;;;19.59;27.99
62976;BME280;49071;0.000;0.000;2022-12-18T14:28:50;102768.25;;;19.52;27.74
62976;BME280;49071;0.000;0.000;2022-12-18T14:35:12;102761.53;;;19.38;28.03
62976;BME280;49071;0.000;0.000;2022-12-18T14:41:17;102755.78;;;19.17;28.13
62976;BME280;49071;0.000;0.000;2022-12-18T14:44:17;102754.25;;;19.07;28.19
62976;BME280;49071;0.000;0.000;2022-12-18T14:47:17;102753.53;;;18.97;28.02
62976;BME280;49071;0.000;0.000;2022-12-18T14:50:18;102741.41;;;18.90;28.19
62976;BME280;49071;0.000;0.000;2022-12-18T14:56:42;102732.78;;;18.80;28.02
62976;BME280;49071;0.000;0.000;2022-12-18T14:59:43;102733.66;;;18.81;27.95
62976;BME280;49071;0.000;0.000;2022-12-18T15:02:45;102742.50;;;18.77;28.22
62976;BME280;49071;0.000;0.000;2022-12-18T15:05:46;102740.75;;;18.76;28.05
62976;BME280;49071;0.000;0.000;2022-12-18T15:08:46;102733.72;;;18.76;27.89
62976;BME280;49071;0.000;0.000;2022-12-18T15:11:47;102734.63;;;18.75;27.93
62976;BME280;49071;0.000;0.000;2022-12-18T15:14:47;102724.06;;;18.78;27.75
62976;BME280;49071;0.000;0.000;2022-12-18T15:17:47;102717.03;;;18.80;28.07
62976;BME280;49071;0.000;0.000;2022-12-18T15:23:51;102700.28;;;18.84;27.79
62976;BME280;49071;0.000;0.000;2022-12-18T15:26:52;102701.91;;;18.92;27.65
62976;BME280;49071;0.000;0.000;2022-12-18T15:29:59;102716.72;;;18.97;28.08
62976;BME280;49071;0.000;0.000;2022-12-18T15:36:19;102713.19;;;19.42;28.23
62976;BME280;49071;0.000;0.000;2022-12-18T15:39:19;102711.91;;;19.61;28.23
62976;BME280;49071;0.000;0.000;2022-12-18T15:42:20;102712.47;;;19.77;28.17
62976;BME280;49071;0.000;0.000;2022-12-18T15:45:39;102740.25;;;19.90;28.09
62976;BME280;49071;0.000;0.000;2022-12-18T15:48:41;102748.75;;;20.03;28.09
62976;BME280;49071;0.000;0.000;2022-12-18T15:51:41;102745.09;;;20.10;27.75
62976;BME280;49071;0.000;0.000;2022-12-18T15:54:41;102750.47;;;20.05;27.78
62976;BME280;49071;0.000;0.000;2022-12-18T15:58:00;102753.34;;;19.95;27.94
62976;BME280;49071;0.000;0.000;2022-12-18T16:01:00;102760.00;;;19.71;29.04
62976;BME280;49071;0.000;0.000;2022-12-18T16:04:01;102760.16;;;19.63;28.59
62976;BME280;49071;0.000;0.000;2022-12-18T16:07:01;102768.00;;;19.66;28.71
62976;BME280;49071;0.000;0.000;2022-12-18T16:10:01;102760.09;;;19.68;28.44
62976;BME280;49071;0.000;0.000;2022-12-18T16:13:01;102768.06;;;19.63;28.48
62976;BME280;49071;0.000;0.000;2022-12-18T16:16:01;102757.66;;;19.54;28.63
62976;BME280;49071;0.000;0.000;2022-12-18T16:19:02;102750.25;;;19.31;28.96
62976;BME280;49071;0.000;0.000;2022-12-18T16:22:05;102744.97;;;19.32;29.77
62976;BME280;49071;0.000;0.000;2022-12-18T16:25:05;102740.44;;;19.41;29.91
62976;BME280;49071;0.000;0.000;2022-12-18T16:28:06;102736.50;;;19.60;29.87
62976;BME280;49071;0.000;0.000;2022-12-18T16:31:06;102734.56;;;19.71;30.00
62976;BME280;49071;0.000;0.000;2022-12-18T16:37:22;102731.34;;;19.55;29.66
62976;BME280;49071;0.000;0.000;2022-12-18T16:40:22;102728.19;;;19.38;29.92
62976;BME280;49071;0.000;0.000;2022-12-18T16:43:23;102723.25;;;19.21;29.54
62976;BME280;49071;0.000;0.000;2022-12-18T16:46:23;102710.28;;;19.12;29.77
62976;BME280;49071;0.000;0.000;2022-12-18T16:49:23;102704.22;;;19.08;29.85
62976;BME280;49071;0.000;0.000;2022-12-18T16:52:23;102704.25;;;19.07;29.73
62976;BME280;49071;0.000;0.000;2022-12-18T16:55:23;102709.53;;;19.05;29.87
62976;BME280;49071;0.000;0.000;2022-12-18T16:58:23;102688.56;;;19.02;30.07
62976;BME280;49071;0.000;0.000;2022-12-18T17:01:24;102683.22;;;19.07;29.81
62976;BME280;49071;0.000;0.000;2022-12-18T17:04:25;102685.69;;;19.15;29.88
62976;BME280;49071;0.000;0.000;2022-12-18T17:07:25;102682.88;;;19.24;29.67
62976;BME280;49071;0.000;0.000;2022-12-18T17:10:25;102691.59;;;19.26;29.68
62976;BME280;49071;0.000;0.000;2022-12-18T17:13:26;102689.69;;;19.32;29.54
62976;BME280;49071;0.000;0.000;2022-12-18T17:16:26;102679.06;;;19.39;29.66
62976;BME280;49071;0.000;0.000;2022-12-18T17:19:26;102673.53;;;19.51;29.20
62976;BME280;49071;0.000;0.000;2022-12-18T17:22:27;102678.66;;;19.57;29.56
62976;BME280;49071;0.000;0.000;2022-12-18T17:25:27;102667.13;;;19.64;29.38
62976;BME280;49071;0.000;0.000;2022-12-18T17:28:27;102668.66;;;19.74;29.36
62976;BME280;49071;0.000;0.000;2022-12-18T17:31:28;102663.28;;;19.79;29.18
62976;BME280;49071;0.000;0.000;2022-12-18T17:34:29;102660.66;;;19.77;28.89
62976;BME280;49071;0.000;0.000;2022-12-18T17:37:29;102664.28;;;19.73;29.14
62976;BME280;49071;0.000;0.000;2022-12-18T17:40:31;102664.38;;;19.69;29.02
62976;BME280;49071;0.000;0.000;2022-12-18T17:43:31;102660.19;;;19.58;29.07
62976;BME280;49071;0.000;0.000;2022-12-18T17:46:34;102648.97;;;19.50;28.99
62976;BME280;49071;0.000;0.000;2022-12-18T17:49:34;102650.91;;;19.42;29.21
62976;BME280;49071;0.000;0.000;2022-12-18T17:52:34;102640.50;;;19.36;29.15
62976;BME280;49071;0.000;0.000;2022-12-18T17:55:35;102640.69;;;19.28;28.85
62976;BME280;49071;0.000;0.000;2022-12-18T17:58:35;102646.09;;;19.21;29.12
62976;BME280;49071;0.000;0.000;2022-12-18T18:01:36;102656.72;;;19.16;29.15
62976;BME280;49071;0.000;0.000;2022-12-18T18:04:36;102662.97;;;19.10;29.13
62976;BME280;49071;0.000;0.000;2022-12-18T18:07:36;102657.84;;;19.03;29.35
62976;BME280;49071;0.000;0.000;2022-12-18T18:10:37;102661.44;;;18.99;29.20
62976;BME280;49071;0.000;0.000;2022-12-18T18:13:37;102653.66;;;18.94;29.21
62976;BME280;49071;0.000;0.000;2022-12-18T18:16:56;102655.47;;;18.91;29.55
62976;BME280;49071;0.000;0.000;2022-12-18T18:19:56;102656.41;;;18.86;29.40
62976;BME280;49071;0.000;0.000;2022-12-18T18:22:57;102669.53;;;18.88;29.40
62976;BME280;49071;0.000;0.000;2022-12-18T18:26:06;102668.63;;;18.91;29.38
62976;BME280;49071;0.000;0.000;2022-12-18T18:29:07;102679.09;;;18.92;29.40
62976;BME280;49071;0.000;0.000;2022-12-18T18:32:10;102672.06;;;18.93;29.39
62976;BME280;49071;0.000;0.000;2022-12-18T18:35:10;102669.44;;;18.93;29.48
62976;BME280;49071;0.000;0.000;2022-12-18T18:38:10;102666.81;;;18.93;29.08
62976;BME280;49071;0.000;0.000;2022-12-18T18:41:10;102664.03;;;19.02;29.13
62976;BME280;49071;0.000;0.000;2022-12-18T18:44:11;102666.53;;;19.08;29.13
62976;BME280;49071;0.000;0.000;2022-12-18T18:47:11;102671.63;;;19.17;28.92
62976;BME280;49071;0.000;0.000;2022-12-18T18:50:13;102679.34;;;19.25;29.16
62976;BME280;49071;0.000;0.000;2022-12-18T18:53:13;102671.34;;;19.29;28.89
62976;BME280;49071;0.000;0.000;2022-12-18T18:56:14;102674.75;;;19.34;28.67
62976;BME280;49071;0.000;0.000;2022-12-18T18:59:15;102666.88;;;19.33;28.59
62976;BME280;49071;0.000;0.000;2022-12-18T19:02:15;102660.69;;;19.35;28.13
62976;BME280;49071;0.000;0.000;2022-12-18T19:05:16;102649.06;;;19.46;28.09
62976;BME280;49071;0.000;0.000;2022-12-18T19:08:16;102650.66;;;19.53;28.35
62976;BME280;49071;0.000;0.000;2022-12-18T19:11:17;102647.03;;;19.58;27.99
62976;BME280;49071;0.000;0.000;2022-12-18T19:14:36;102637.44;;;19.56;27.81
62976;BME280;49071;0.000;0.000;2022-12-18T19:17:36;102633.09;;;19.53;27.66
62976;BME280;49071;0.000;0.000;2022-12-18T19:20:37;102617.47;;;19.47;27.89
62976;BME280;49071;0.000;0.000;2022-12-18T19:23:37;102608.13;;;19.32;27.96
62976;BME280;49071;0.000;0.000;2022-12-18T19:26:37;102614.25;;;19.33;27.89
62976;BME280;49071;0.000;0.000;2022-12-18T19:29:37;102600.34;;;19.28;27.71
62976;BME280;49071;0.000;0.000;2022-12-18T19:32:37;102603.13;;;19.20;28.05
62976;BME280;49071;0.000;0.000;2022-12-18T19:35:38;102610.31;;;19.12;28.14
62976;BME280;49071;0.000;0.000;2022-12-18T19:38:38;102602.56;;;19.06;27.87
62976;BME280;49071;0.000;0.000;2022-12-18T19:41:38;102604.38;;;19.02;28.26
62976;BME280;49071;0.000;0.000;2022-12-18T19:44:39;102612.28;;;19.02;27.92
62976;BME280;49071;0.000;0.000;2022-12-18T19:47:39;102599.22;;;18.98;27.87
62976;BME280;49071;0.000;0.000;2022-12-18T19:50:39;102598.31;;;18.99;28.03
62976;BME280;49071;0.000;0.000;2022-12-18T19:53:40;102589.63;;;18.95;27.73
62976;BME280;49071;0.000;0.000;2022-12-18T19:56:40;102591.34;;;18.98;27.88
62976;BME280;49071;0.000;0.000;2022-12-18T19:59:40;102579.06;;;18.98;27.62
62976;BME280;49071;0.000;0.000;2022-12-18T20:02:41;102573.63;;;19.06;27.79
62976;BME280;49071;0.000;0.000;2022-12-18T20:05:41;102573.50;;;19.14;27.50
62976;BME280;49071;0.000;0.000;2022-12-18T20:08:41;102576.94;;;19.16;27.53
62976;BME280;49071;0.000;0.000;2022-12-18T20:11:41;102590.03;;;19.19;27.80
62976;BME280;49071;0.000;0.000;2022-12-18T20:14:42;102592.34;;;19.32;27.53
62976;BME280;49071;0.000;0.000;2022-12-18T20:17:42;102596.56;;;19.40;27.30
62976;BME280;49071;0.000;0.000;2022-12-18T20:20:42;102592.09;;;19.43;27.36
62976;BME280;49071;0.000;0.000;2022-12-18T20:23:42;102595.44;;;19.51;27.27
62976;BME280;49071;0.000;0.000;2022-12-18T20:26:42;102582.03;;;19.61;27.21
62976;BME280;49071;0.000;0.000;2022-12-18T20:29:43;102576.59;;;19.70;27.22
62976;BME280;49071;0.000;0.000;2022-12-18T20:32:43;102567.63;;;19.78;27.07
62976;BME280;49071;0.000;0.000;2022-12-18T20:35:44;102563.16;;;19.80;26.99
62976;BME280;49071;0.000;0.000;2022-12-18T20:38:44;102556.25;;;19.76;27.14
62976;BME280;49071;0.000;0.000;2022-12-18T20:41:44;102572.97;;;19.75;26.99
62976;BME280;49071;0.000;0.000;2022-12-18T20:44:44;102566.06;;;19.71;27.02
62976;BME280;49071;0.000;0.000;2022-12-18T20:47:44;102559.25;;;19.59;27.15
62976;BME280;49071;0.000;0.000;2022-12-18T20:50:45;102563.00;;;19.49;27.41
62976;BME280;49071;0.000;0.000;2022-12-18T20:53:45;102564.06;;;19.42;27.18
62976;BME280;49071;0.000;0.000;2022-12-18T20:56:45;102573.13;;;19.30;27.60
62976;BME280;49071;0.000;0.000;2022-12-18T20:59:45;102561.03;;;19.22;27.45
62976;BME280;49071;0.000;0.000;2022-12-18T21:02:46;102549.72;;;19.17;27.47
62976;BME280;49071;0.000;0.000;2022-12-18T21:05:46;102539.44;;;19.06;27.61
62976;BME280;49071;0.000;0.000;2022-12-18T21:08:46;102534.41;;;18.95;27.96
62976;BME280;49071;0.000;0.000;2022-12-18T21:11:47;102531.97;;;18.86;27.93
62976;BME280;49071;0.000;0.000;2022-12-18T21:15:08;102526.94;;;18.75;27.97
62976;BME280;49071;0.000;0.000;2022-12-18T21:18:08;102524.56;;;18.63;27.85
62976;BME280;49071;0.000;0.000;2022-12-18T21:21:09;102528.28;;;18.51;28.14
62976;BME280;49071;0.000;0.000;2022-12-18T21:24:09;102531.06;;;18.44;28.32
62976;BME280;49071;0.000;0.000;2022-12-18T21:27:09;102541.78;;;18.33;28.03
62976;BME280;49071;0.000;0.000;2022-12-18T21:30:10;102540.13;;;18.27;28.53
62976;BME280;49071;0.000;0.000;2022-12-18T21:33:10;102543.75;;;18.20;28.48
62976;BME280;49071;0.000;0.000;2022-12-18T21:36:10;102541.19;;;18.15;28.56
62976;BME280;49071;0.000;0.000;2022-12-18T21:39:10;102532.41;;;18.18;28.71
62976;BME280;49071;0.000;0.000;2022-12-18T21:42:11;102529.72;;;18.21;28.49
62976;BME280;49071;0.000;0.000;2022-12-18T21:45:29;102527.91;;;18.25;28.39
62976;BME280;49071;0.000;0.000;2022-12-18T21:48:30;102524.38;;;18.26;28.45
62976;BME280;49071;0.000;0.000;2022-12-18T21:51:30;102523.47;;;18.28;28.23
62976;BME280;49071;0.000;0.000;2022-12-18T21:54:30;102523.41;;;18.31;28.41
62976;BME280;49071;0.000;0.000;2022-12-18T21:57:30;102511.13;;;18.32;28.38
62976;BME280;49071;0.000;0.000;2022-12-18T22:00:31;102511.94;;;18.35;27.79
62976;BME280;49071;0.000;0.000;2022-12-18T22:03:31;102509.25;;;18.38;28.17
62976;BME280;49071;0.000;0.000;2022-12-18T22:06:31;102503.94;;;18.41;27.90
62976;BME280;49071;0.000;0.000;2022-12-18T22:09:31;102507.38;;;18.45;28.00
62976;BME280;49071;0.000;0.000;2022-12-18T22:12:31;102499.44;;;18.48;27.45
62976;BME280;49071;0.000;0.000;2022-12-18T22:15:35;102502.91;;;18.49;27.70
62976;BME280;49071;0.000;0.000;2022-12-18T22:18:35;102507.25;;;18.53;27.53
62976;BME280;49071;0.000;0.000;2022-12-18T22:21:36;102494.91;;;18.55;27.75
62976;BME280;49071;0.000;0.000;2022-12-18T22:24:36;102489.53;;;18.61;27.69
62976;BME280;49071;0.000;0.000;2022-12-18T22:27:37;102479.03;;;18.61;27.40
